Aérodrome :
LOGIN :

S'inscrire | Disclaimer

   EN    FR    IT 

 










Légende :    VFR   VFR Marginal   IFR   IFR Intensif   IFR Très Intensif
Visi : 
Plafond : 
>= 8 km
>= 3000ft
5 à 8 km
1000 à 3000 ft
1500m à 5 km
500 à 1000 ft
800 à 1500m
200 à 500 ft
< 800m
< 200 ft
Symboles :   Orages  Brouillard  Fortes neiges  Fortes précipitations  Vent > 20 kt
SIGMETs :   Divers  Orages  Givrage  Turbulence  Onde Orograph.  Cendres Volcan.







- Altitude de l'aérodrome : 177 ft
- Code IATA : BRI


LIBD - Palese Macchie Bari

DERNIER METAR :
  • 202250Z 30007KT 9999 FEW045 13/10 Q1007

METARs EXPIRÉS :
  • 202220Z 30005KT 260V340 9999 FEW045 14/09 Q1007
  • 202150Z 33006KT 9999 FEW045 15/09 Q1006
  • 202120Z 30005KT 270V330 9999 FEW041 14/10 Q1006
  • 202050Z 26008KT 9999 -RA FEW040 15/10 Q1006
  • 202020Z 19006KT 9999 -RA FEW040 16/10 Q1006

TAF TAF LIBD
Valide du 20 à 18h jusqu'au 21 à 18h UTC


201700Z 2018/2118 17013KT 9999 SCT030
BECMG 2018/2021 VRB05KT
Pas de NOTAMs connus pour ce terrain.
2 SIGMETs publiés pour la FIR Brindisi (LIBB) :
 
Turbulence forte
LIBB SIGMET 20 VALID 202300/210200 LIIB
LIBB BRINDISI FIR SEV TURB FCST WI N4307 E01505 - N4154 E01358 - N4126 E01426 - N4107 E01511 - N3854 E01742 - N3854 E01900 - N4041 E01900 - N4106 E01852 - N4112 E01841 - N4221 E01618 - N4307 E01505 FL240/360 MOV E WKN=
Turbulence forte
LIBB SIGMET 18 VALID 202130/202300 LIIB
LIBB BRINDISI FIR SEV TURB FCST WI N4124 E01419 - N4329 E01424 - N4224 E01612 - N4142 E01741 - N3852 E01758 - N3852 E01721 - N3855 E01647 - N3905 E01619 - N4114 E01507 - N4124 E01419 FL240/360 MOV E NC=



MET'MAP, la Météo Aéronautique d'un coup d'oeil ! - Copyright ORBIFLY Décembre 2007 - Disclaimer

ORBIFLY MET'MAP TEAM :

Programmation & Développement : Alexandra Zaïnal
Conception & Développement : Baudouin d'Aumeries
Co-Programmation & Développement : Marc-Olivier Méhu
Soutien technique & logistique : Manuel Goepfert

Contact : metmap@orbifly.com




SOURCES & CREDITS :

   NOAA